sensor_id;sensor_type;location;lat;lon;timestamp;P1;durP1;ratioP1;P2;durP2;ratioP2
8312;SDS011;4194;43.408;24.626;2022-11-18T00:02:13;12.13;;;8.20;;
8312;SDS011;4194;43.408;24.626;2022-11-18T00:04:39;12.80;;;9.27;;
8312;SDS011;4194;43.408;24.626;2022-11-18T00:07:04;13.87;;;9.30;;
8312;SDS011;4194;43.408;24.626;2022-11-18T00:09:30;13.90;;;10.23;;
8312;SDS011;4194;43.408;24.626;2022-11-18T00:11:55;10.17;;;8.27;;
8312;SDS011;4194;43.408;24.626;2022-11-18T00:14:40;8.53;;;7.50;;
8312;SDS011;4194;43.408;24.626;2022-11-18T00:17:05;9.43;;;7.73;;
8312;SDS011;4194;43.408;24.626;2022-11-18T00:19:32;7.87;;;6.93;;
8312;SDS011;4194;43.408;24.626;2022-11-18T00:22:00;7.57;;;6.37;;
8312;SDS011;4194;43.408;24.626;2022-11-18T00:24:26;8.70;;;7.03;;
8312;SDS011;4194;43.408;24.626;2022-11-18T00:26:52;9.73;;;7.13;;
8312;SDS011;4194;43.408;24.626;2022-11-18T00:29:18;8.57;;;6.67;;
8312;SDS011;4194;43.408;24.626;2022-11-18T00:31:45;7.57;;;6.23;;
8312;SDS011;4194;43.408;24.626;2022-11-18T00:34:11;10.03;;;7.00;;
8312;SDS011;4194;43.408;24.626;2022-11-18T00:36:39;8.87;;;7.27;;
8312;SDS011;4194;43.408;24.626;2022-11-18T00:39:06;7.80;;;6.57;;
8312;SDS011;4194;43.408;24.626;2022-11-18T00:41:31;9.70;;;7.40;;
8312;SDS011;4194;43.408;24.626;2022-11-18T00:44:16;7.53;;;6.67;;
8312;SDS011;4194;43.408;24.626;2022-11-18T00:46:41;10.00;;;7.33;;
8312;SDS011;4194;43.408;24.626;2022-11-18T00:49:08;9.10;;;6.93;;
8312;SDS011;4194;43.408;24.626;2022-11-18T00:51:34;10.13;;;7.33;;
8312;SDS011;4194;43.408;24.626;2022-11-18T00:54:03;9.57;;;7.40;;
8312;SDS011;4194;43.408;24.626;2022-11-18T00:56:29;10.40;;;7.07;;
8312;SDS011;4194;43.408;24.626;2022-11-18T00:58:55;10.23;;;6.87;;
8312;SDS011;4194;43.408;24.626;2022-11-18T01:01:20;9.77;;;7.03;;
8312;SDS011;4194;43.408;24.626;2022-11-18T01:03:46;10.83;;;7.27;;
8312;SDS011;4194;43.408;24.626;2022-11-18T01:06:12;8.20;;;6.70;;
8312;SDS011;4194;43.408;24.626;2022-11-18T01:08:38;9.07;;;6.87;;
8312;SDS011;4194;43.408;24.626;2022-11-18T01:11:04;9.43;;;6.90;;
8312;SDS011;4194;43.408;24.626;2022-11-18T01:13:48;11.70;;;7.07;;
8312;SDS011;4194;43.408;24.626;2022-11-18T01:16:19;10.93;;;7.80;;
8312;SDS011;4194;43.408;24.626;2022-11-18T01:18:46;9.13;;;6.67;;
8312;SDS011;4194;43.408;24.626;2022-11-18T01:21:12;9.27;;;6.70;;
8312;SDS011;4194;43.408;24.626;2022-11-18T01:23:37;11.97;;;8.77;;
8312;SDS011;4194;43.408;24.626;2022-11-18T01:26:06;11.90;;;9.37;;
8312;SDS011;4194;43.408;24.626;2022-11-18T01:28:33;10.33;;;8.77;;
8312;SDS011;4194;43.408;24.626;2022-11-18T01:31:06;11.50;;;7.77;;
8312;SDS011;4194;43.408;24.626;2022-11-18T01:33:34;11.87;;;8.50;;
8312;SDS011;4194;43.408;24.626;2022-11-18T01:35:59;9.60;;;8.03;;
8312;SDS011;4194;43.408;24.626;2022-11-18T01:38:25;10.27;;;8.03;;
8312;SDS011;4194;43.408;24.626;2022-11-18T01:40:52;9.87;;;5.90;;
8312;SDS011;4194;43.408;24.626;2022-11-18T01:43:19;9.50;;;7.90;;
8312;SDS011;4194;43.408;24.626;2022-11-18T01:45:47;9.07;;;7.00;;
8312;SDS011;4194;43.408;24.626;2022-11-18T01:48:19;9.07;;;6.87;;
8312;SDS011;4194;43.408;24.626;2022-11-18T01:51:01;8.97;;;6.33;;
8312;SDS011;4194;43.408;24.626;2022-11-18T01:53:31;10.37;;;6.67;;
8312;SDS011;4194;43.408;24.626;2022-11-18T01:56:04;10.17;;;8.03;;
8312;SDS011;4194;43.408;24.626;2022-11-18T01:58:43;11.10;;;7.50;;
8312;SDS011;4194;43.408;24.626;2022-11-18T02:01:10;11.27;;;8.60;;
8312;SDS011;4194;43.408;24.626;2022-11-18T02:03:36;12.73;;;8.47;;
8312;SDS011;4194;43.408;24.626;2022-11-18T02:06:02;11.93;;;8.87;;
8312;SDS011;4194;43.408;24.626;2022-11-18T02:08:31;11.90;;;8.93;;
8312;SDS011;4194;43.408;24.626;2022-11-18T02:10:57;12.97;;;9.37;;
8312;SDS011;4194;43.408;24.626;2022-11-18T02:13:23;10.50;;;8.33;;
8312;SDS011;4194;43.408;24.626;2022-11-18T02:16:24;10.07;;;8.33;;
8312;SDS011;4194;43.408;24.626;2022-11-18T02:29:31;9.63;;;7.63;;
8312;SDS011;4194;43.408;24.626;2022-11-18T02:32:14;11.03;;;7.47;;
8312;SDS011;4194;43.408;24.626;2022-11-18T02:34:47;12.40;;;8.23;;
8312;SDS011;4194;43.408;24.626;2022-11-18T02:37:31;11.13;;;8.23;;
8312;SDS011;4194;43.408;24.626;2022-11-18T02:39:59;11.23;;;7.90;;
8312;SDS011;4194;43.408;24.626;2022-11-18T02:42:29;11.43;;;7.27;;
8312;SDS011;4194;43.408;24.626;2022-11-18T02:45:00;9.20;;;7.37;;
8312;SDS011;4194;43.408;24.626;2022-11-18T02:47:30;8.97;;;7.47;;
8312;SDS011;4194;43.408;24.626;2022-11-18T02:50:05;11.40;;;8.73;;
8312;SDS011;4194;43.408;24.626;2022-11-18T02:52:34;11.37;;;7.07;;
8312;SDS011;4194;43.408;24.626;2022-11-18T02:55:03;9.40;;;6.40;;
8312;SDS011;4194;43.408;24.626;2022-11-18T02:57:33;10.60;;;6.03;;
8312;SDS011;4194;43.408;24.626;2022-11-18T03:00:00;8.63;;;6.20;;
8312;SDS011;4194;43.408;24.626;2022-11-18T03:02:25;9.87;;;5.83;;
8312;SDS011;4194;43.408;24.626;2022-11-18T03:04:53;8.43;;;5.37;;
8312;SDS011;4194;43.408;24.626;2022-11-18T03:07:24;9.47;;;5.13;;
8312;SDS011;4194;43.408;24.626;2022-11-18T03:09:54;5.00;;;4.50;;
8312;SDS011;4194;43.408;24.626;2022-11-18T03:20:50;10.27;;;5.87;;
8312;SDS011;4194;43.408;24.626;2022-11-18T03:26:06;9.00;;;5.37;;
8312;SDS011;4194;43.408;24.626;2022-11-18T03:31:28;5.40;;;4.60;;
8312;SDS011;4194;43.408;24.626;2022-11-18T03:34:20;8.03;;;5.07;;
8312;SDS011;4194;43.408;24.626;2022-11-18T03:37:02;8.67;;;5.13;;
8312;SDS011;4194;43.408;24.626;2022-11-18T03:39:32;5.07;;;4.53;;
8312;SDS011;4194;43.408;24.626;2022-11-18T03:42:04;6.13;;;5.10;;
8312;SDS011;4194;43.408;24.626;2022-11-18T03:44:35;5.30;;;4.80;;
8312;SDS011;4194;43.408;24.626;2022-11-18T03:47:05;6.27;;;4.70;;
8312;SDS011;4194;43.408;24.626;2022-11-18T03:49:35;6.63;;;5.20;;
8312;SDS011;4194;43.408;24.626;2022-11-18T03:52:20;5.20;;;4.70;;
8312;SDS011;4194;43.408;24.626;2022-11-18T03:54:50;6.50;;;5.07;;
8312;SDS011;4194;43.408;24.626;2022-11-18T03:57:20;7.10;;;4.43;;
8312;SDS011;4194;43.408;24.626;2022-11-18T03:59:52;5.60;;;4.77;;
8312;SDS011;4194;43.408;24.626;2022-11-18T04:02:26;5.03;;;4.50;;
8312;SDS011;4194;43.408;24.626;2022-11-18T04:04:54;8.97;;;5.60;;
8312;SDS011;4194;43.408;24.626;2022-11-18T04:07:37;8.87;;;5.70;;
8312;SDS011;4194;43.408;24.626;2022-11-18T04:10:18;6.60;;;5.33;;
8312;SDS011;4194;43.408;24.626;2022-11-18T04:15:18;5.50;;;5.00;;
8312;SDS011;4194;43.408;24.626;2022-11-18T04:17:44;5.53;;;4.93;;
8312;SDS011;4194;43.408;24.626;2022-11-18T04:20:16;6.30;;;5.70;;
8312;SDS011;4194;43.408;24.626;2022-11-18T04:22:44;12.33;;;7.10;;
8312;SDS011;4194;43.408;24.626;2022-11-18T04:25:10;9.07;;;7.27;;
8312;SDS011;4194;43.408;24.626;2022-11-18T04:27:36;8.70;;;7.23;;
8312;SDS011;4194;43.408;24.626;2022-11-18T04:30:03;8.23;;;6.70;;
8312;SDS011;4194;43.408;24.626;2022-11-18T04:32:29;9.20;;;5.63;;
8312;SDS011;4194;43.408;24.626;2022-11-18T04:58:27;7.73;;;5.87;;
8312;SDS011;4194;43.408;24.626;2022-11-18T05:00:53;7.70;;;6.40;;
8312;SDS011;4194;43.408;24.626;2022-11-18T05:03:19;10.27;;;6.50;;
8312;SDS011;4194;43.408;24.626;2022-11-18T05:05:44;10.20;;;6.70;;
8312;SDS011;4194;43.408;24.626;2022-11-18T05:08:10;9.63;;;7.20;;
8312;SDS011;4194;43.408;24.626;2022-11-18T05:10:37;12.50;;;7.80;;
8312;SDS011;4194;43.408;24.626;2022-11-18T05:13:02;12.43;;;7.30;;
8312;SDS011;4194;43.408;24.626;2022-11-18T05:15:28;14.53;;;7.27;;
8312;SDS011;4194;43.408;24.626;2022-11-18T05:17:54;15.00;;;6.47;;
8312;SDS011;4194;43.408;24.626;2022-11-18T05:20:19;8.97;;;6.23;;
8312;SDS011;4194;43.408;24.626;2022-11-18T05:22:45;14.23;;;7.20;;
8312;SDS011;4194;43.408;24.626;2022-11-18T05:25:11;12.23;;;7.60;;
8312;SDS011;4194;43.408;24.626;2022-11-18T05:27:36;12.47;;;7.23;;
8312;SDS011;4194;43.408;24.626;2022-11-18T05:30:02;9.40;;;6.83;;
8312;SDS011;4194;43.408;24.626;2022-11-18T05:32:29;15.87;;;6.33;;
8312;SDS011;4194;43.408;24.626;2022-11-18T05:34:54;10.73;;;5.80;;
8312;SDS011;4194;43.408;24.626;2022-11-18T05:37:20;11.07;;;6.73;;
8312;SDS011;4194;43.408;24.626;2022-11-18T05:39:45;10.70;;;7.30;;
8312;SDS011;4194;43.408;24.626;2022-11-18T05:42:11;18.60;;;7.67;;
8312;SDS011;4194;43.408;24.626;2022-11-18T05:44:55;11.23;;;6.90;;
8312;SDS011;4194;43.408;24.626;2022-11-18T05:47:21;10.93;;;7.77;;
8312;SDS011;4194;43.408;24.626;2022-11-18T05:49:49;10.13;;;7.67;;
8312;SDS011;4194;43.408;24.626;2022-11-18T05:52:14;11.33;;;7.43;;
8312;SDS011;4194;43.408;24.626;2022-11-18T05:54:44;15.30;;;7.53;;
8312;SDS011;4194;43.408;24.626;2022-11-18T05:57:14;13.30;;;8.33;;
8312;SDS011;4194;43.408;24.626;2022-11-18T05:59:39;14.73;;;7.97;;
8312;SDS011;4194;43.408;24.626;2022-11-18T06:02:06;18.47;;;9.73;;
8312;SDS011;4194;43.408;24.626;2022-11-18T06:04:59;15.90;;;10.10;;
8312;SDS011;4194;43.408;24.626;2022-11-18T06:07:31;22.87;;;10.50;;
8312;SDS011;4194;43.408;24.626;2022-11-18T06:10:06;18.27;;;11.30;;
8312;SDS011;4194;43.408;24.626;2022-11-18T06:12:38;18.67;;;12.17;;
8312;SDS011;4194;43.408;24.626;2022-11-18T06:15:11;19.83;;;11.87;;
8312;SDS011;4194;43.408;24.626;2022-11-18T06:17:50;23.97;;;12.60;;
8312;SDS011;4194;43.408;24.626;2022-11-18T06:20:17;24.00;;;12.80;;
8312;SDS011;4194;43.408;24.626;2022-11-18T06:22:44;33.77;;;13.60;;
8312;SDS011;4194;43.408;24.626;2022-11-18T06:25:11;20.90;;;11.43;;
8312;SDS011;4194;43.408;24.626;2022-11-18T06:27:36;32.67;;;14.70;;
8312;SDS011;4194;43.408;24.626;2022-11-18T06:30:02;37.77;;;12.97;;
8312;SDS011;4194;43.408;24.626;2022-11-18T06:32:28;22.27;;;12.50;;
8312;SDS011;4194;43.408;24.626;2022-11-18T06:34:54;18.60;;;13.03;;
8312;SDS011;4194;43.408;24.626;2022-11-18T06:37:20;25.37;;;13.07;;
8312;SDS011;4194;43.408;24.626;2022-11-18T06:39:45;26.17;;;12.83;;
8312;SDS011;4194;43.408;24.626;2022-11-18T06:42:11;25.40;;;13.50;;
8312;SDS011;4194;43.408;24.626;2022-11-18T06:44:57;27.43;;;14.13;;
8312;SDS011;4194;43.408;24.626;2022-11-18T06:47:23;27.47;;;15.50;;
8312;SDS011;4194;43.408;24.626;2022-11-18T06:49:48;33.50;;;17.17;;
8312;SDS011;4194;43.408;24.626;2022-11-18T06:52:14;42.03;;;18.03;;
8312;SDS011;4194;43.408;24.626;2022-11-18T06:54:39;26.90;;;15.77;;
8312;SDS011;4194;43.408;24.626;2022-11-18T06:57:05;27.17;;;15.37;;
8312;SDS011;4194;43.408;24.626;2022-11-18T06:59:31;25.73;;;14.63;;
8312;SDS011;4194;43.408;24.626;2022-11-18T07:01:56;29.60;;;17.77;;
8312;SDS011;4194;43.408;24.626;2022-11-18T07:04:22;28.13;;;16.83;;
8312;SDS011;4194;43.408;24.626;2022-11-18T07:06:48;29.80;;;18.10;;
8312;SDS011;4194;43.408;24.626;2022-11-18T07:09:14;32.33;;;15.33;;
8312;SDS011;4194;43.408;24.626;2022-11-18T07:11:40;26.03;;;13.00;;
8312;SDS011;4194;43.408;24.626;2022-11-18T07:14:08;22.93;;;12.10;;
8312;SDS011;4194;43.408;24.626;2022-11-18T07:16:36;25.03;;;12.23;;
8312;SDS011;4194;43.408;24.626;2022-11-18T07:19:06;22.73;;;12.50;;
8312;SDS011;4194;43.408;24.626;2022-11-18T07:21:34;26.43;;;14.27;;
8312;SDS011;4194;43.408;24.626;2022-11-18T07:24:03;21.50;;;15.53;;
8312;SDS011;4194;43.408;24.626;2022-11-18T07:26:31;24.37;;;16.50;;
8312;SDS011;4194;43.408;24.626;2022-11-18T07:28:57;30.03;;;17.73;;
8312;SDS011;4194;43.408;24.626;2022-11-18T07:31:23;26.43;;;15.40;;
8312;SDS011;4194;43.408;24.626;2022-11-18T07:33:48;34.20;;;17.10;;
8312;SDS011;4194;43.408;24.626;2022-11-18T07:36:26;30.77;;;14.97;;
8312;SDS011;4194;43.408;24.626;2022-11-18T07:38:53;29.30;;;14.50;;
8312;SDS011;4194;43.408;24.626;2022-11-18T07:41:23;26.87;;;12.73;;
8312;SDS011;4194;43.408;24.626;2022-11-18T07:43:51;20.30;;;11.43;;
8312;SDS011;4194;43.408;24.626;2022-11-18T07:48:49;16.53;;;10.53;;
8312;SDS011;4194;43.408;24.626;2022-11-18T07:51:16;22.13;;;11.63;;
8312;SDS011;4194;43.408;24.626;2022-11-18T07:53:43;21.10;;;11.87;;
8312;SDS011;4194;43.408;24.626;2022-11-18T07:56:10;17.67;;;10.20;;
8312;SDS011;4194;43.408;24.626;2022-11-18T07:58:36;22.33;;;10.87;;
8312;SDS011;4194;43.408;24.626;2022-11-18T08:01:21;21.87;;;11.27;;
8312;SDS011;4194;43.408;24.626;2022-11-18T08:03:55;18.53;;;10.53;;
8312;SDS011;4194;43.408;24.626;2022-11-18T08:06:21;21.77;;;11.20;;
8312;SDS011;4194;43.408;24.626;2022-11-18T08:08:47;27.07;;;12.50;;
8312;SDS011;4194;43.408;24.626;2022-11-18T08:11:14;19.40;;;11.47;;
8312;SDS011;4194;43.408;24.626;2022-11-18T08:13:42;18.37;;;11.30;;
8312;SDS011;4194;43.408;24.626;2022-11-18T08:16:14;22.60;;;12.40;;
8312;SDS011;4194;43.408;24.626;2022-11-18T08:18:42;21.07;;;12.03;;
8312;SDS011;4194;43.408;24.626;2022-11-18T08:21:08;19.97;;;11.40;;
8312;SDS011;4194;43.408;24.626;2022-11-18T08:23:34;23.33;;;12.70;;
8312;SDS011;4194;43.408;24.626;2022-11-18T08:26:04;23.57;;;11.67;;
8312;SDS011;4194;43.408;24.626;2022-11-18T08:28:49;22.80;;;12.60;;
8312;SDS011;4194;43.408;24.626;2022-11-18T08:31:16;22.50;;;13.00;;
8312;SDS011;4194;43.408;24.626;2022-11-18T08:33:44;22.87;;;13.23;;
8312;SDS011;4194;43.408;24.626;2022-11-18T08:36:17;25.80;;;13.13;;
8312;SDS011;4194;43.408;24.626;2022-11-18T08:38:46;27.53;;;12.83;;
8312;SDS011;4194;43.408;24.626;2022-11-18T08:41:12;27.67;;;13.37;;
8312;SDS011;4194;43.408;24.626;2022-11-18T08:43:40;22.97;;;13.33;;
8312;SDS011;4194;43.408;24.626;2022-11-18T08:46:06;23.57;;;13.93;;
8312;SDS011;4194;43.408;24.626;2022-11-18T08:48:32;26.27;;;13.43;;
8312;SDS011;4194;43.408;24.626;2022-11-18T08:50:58;25.30;;;13.57;;
8312;SDS011;4194;43.408;24.626;2022-11-18T08:53:24;23.40;;;13.23;;
8312;SDS011;4194;43.408;24.626;2022-11-18T08:55:53;22.67;;;13.97;;
8312;SDS011;4194;43.408;24.626;2022-11-18T08:58:20;17.73;;;12.23;;
8312;SDS011;4194;43.408;24.626;2022-11-18T09:00:46;26.07;;;13.30;;
8312;SDS011;4194;43.408;24.626;2022-11-18T09:03:12;19.70;;;12.67;;
8312;SDS011;4194;43.408;24.626;2022-11-18T09:05:37;22.57;;;14.07;;
8312;SDS011;4194;43.408;24.626;2022-11-18T09:08:03;22.70;;;13.07;;
8312;SDS011;4194;43.408;24.626;2022-11-18T09:10:29;27.47;;;13.20;;
8312;SDS011;4194;43.408;24.626;2022-11-18T09:12:55;20.23;;;12.97;;
8312;SDS011;4194;43.408;24.626;2022-11-18T09:15:20;24.67;;;11.87;;
8312;SDS011;4194;43.408;24.626;2022-11-18T09:17:48;23.17;;;11.90;;
8312;SDS011;4194;43.408;24.626;2022-11-18T09:20:15;19.50;;;11.77;;
8312;SDS011;4194;43.408;24.626;2022-11-18T09:22:41;21.53;;;11.53;;
8312;SDS011;4194;43.408;24.626;2022-11-18T09:25:07;19.57;;;12.07;;
8312;SDS011;4194;43.408;24.626;2022-11-18T09:27:33;19.40;;;11.43;;
8312;SDS011;4194;43.408;24.626;2022-11-18T09:29:58;13.83;;;6.43;;
8312;SDS011;4194;43.408;24.626;2022-11-18T09:32:24;15.27;;;7.87;;
8312;SDS011;4194;43.408;24.626;2022-11-18T09:34:50;11.60;;;6.47;;
8312;SDS011;4194;43.408;24.626;2022-11-18T09:37:15;9.53;;;3.67;;
8312;SDS011;4194;43.408;24.626;2022-11-18T09:39:41;7.40;;;4.50;;
8312;SDS011;4194;43.408;24.626;2022-11-18T09:42:12;10.90;;;4.47;;
8312;SDS011;4194;43.408;24.626;2022-11-18T09:47:31;6.30;;;2.97;;
8312;SDS011;4194;43.408;24.626;2022-11-18T09:49:59;7.17;;;2.77;;
8312;SDS011;4194;43.408;24.626;2022-11-18T09:55:26;5.07;;;2.70;;
8312;SDS011;4194;43.408;24.626;2022-11-18T09:57:53;3.60;;;2.40;;
8312;SDS011;4194;43.408;24.626;2022-11-18T10:05:24;2.90;;;1.80;;
8312;SDS011;4194;43.408;24.626;2022-11-18T10:13:23;3.50;;;2.20;;
8312;SDS011;4194;43.408;24.626;2022-11-18T10:18:48;3.37;;;2.43;;
8312;SDS011;4194;43.408;24.626;2022-11-18T10:21:59;5.50;;;1.90;;
8312;SDS011;4194;43.408;24.626;2022-11-18T10:24:56;2.93;;;1.60;;
8312;SDS011;4194;43.408;24.626;2022-11-18T10:27:25;3.87;;;2.10;;
8312;SDS011;4194;43.408;24.626;2022-11-18T10:29:59;2.20;;;1.67;;
8312;SDS011;4194;43.408;24.626;2022-11-18T10:32:26;3.17;;;2.30;;
8312;SDS011;4194;43.408;24.626;2022-11-18T10:34:56;4.57;;;1.43;;
8312;SDS011;4194;43.408;24.626;2022-11-18T10:37:27;9.70;;;2.20;;
8312;SDS011;4194;43.408;24.626;2022-11-18T10:40:03;2.83;;;1.80;;
8312;SDS011;4194;43.408;24.626;2022-11-18T10:42:43;2.50;;;1.60;;
8312;SDS011;4194;43.408;24.626;2022-11-18T10:47:57;3.93;;;1.67;;
8312;SDS011;4194;43.408;24.626;2022-11-18T10:50:31;4.10;;;1.97;;
8312;SDS011;4194;43.408;24.626;2022-11-18T10:52:59;1.40;;;1.30;;
8312;SDS011;4194;43.408;24.626;2022-11-18T10:55:25;2.43;;;1.50;;
8312;SDS011;4194;43.408;24.626;2022-11-18T10:57:53;4.80;;;1.70;;
8312;SDS011;4194;43.408;24.626;2022-11-18T11:00:36;2.27;;;1.60;;
8312;SDS011;4194;43.408;24.626;2022-11-18T11:08:51;1.60;;;1.30;;
8312;SDS011;4194;43.408;24.626;2022-11-18T11:11:24;1.50;;;1.40;;
8312;SDS011;4194;43.408;24.626;2022-11-18T11:14:06;2.77;;;1.20;;
8312;SDS011;4194;43.408;24.626;2022-11-18T11:16:49;2.23;;;1.20;;
8312;SDS011;4194;43.408;24.626;2022-11-18T11:19:45;3.23;;;1.90;;
8312;SDS011;4194;43.408;24.626;2022-11-18T11:22:22;1.63;;;1.50;;
8312;SDS011;4194;43.408;24.626;2022-11-18T11:24:48;2.47;;;1.80;;
8312;SDS011;4194;43.408;24.626;2022-11-18T11:27:18;2.70;;;1.60;;
8312;SDS011;4194;43.408;24.626;2022-11-18T11:32:32;1.83;;;1.33;;
8312;SDS011;4194;43.408;24.626;2022-11-18T11:37:51;3.20;;;1.70;;
8312;SDS011;4194;43.408;24.626;2022-11-18T11:40:39;3.47;;;1.23;;
8312;SDS011;4194;43.408;24.626;2022-11-18T11:51:26;2.07;;;1.63;;
8312;SDS011;4194;43.408;24.626;2022-11-18T11:54:23;3.07;;;1.60;;
8312;SDS011;4194;43.408;24.626;2022-11-18T11:57:03;5.97;;;1.73;;
8312;SDS011;4194;43.408;24.626;2022-11-18T12:07:41;2.23;;;1.43;;
8312;SDS011;4194;43.408;24.626;2022-11-18T12:18:26;2.92;;;1.73;;
8312;SDS011;4194;43.408;24.626;2022-11-18T12:21:04;6.63;;;1.92;;
8312;SDS011;4194;43.408;24.626;2022-11-18T12:23:30;6.07;;;1.85;;
8312;SDS011;4194;43.408;24.626;2022-11-18T12:41:54;3.90;;;1.83;;
8312;SDS011;4194;43.408;24.626;2022-11-18T12:44:40;2.93;;;1.70;;
8312;SDS011;4194;43.408;24.626;2022-11-18T12:47:08;1.77;;;1.50;;
8312;SDS011;4194;43.408;24.626;2022-11-18T12:52:00;6.13;;;3.70;;
8312;SDS011;4194;43.408;24.626;2022-11-18T12:54:34;5.17;;;2.90;;
8312;SDS011;4194;43.408;24.626;2022-11-18T12:57:13;5.63;;;1.97;;
8312;SDS011;4194;43.408;24.626;2022-11-18T12:59:43;2.87;;;2.13;;
8312;SDS011;4194;43.408;24.626;2022-11-18T13:04:35;2.40;;;1.93;;
8312;SDS011;4194;43.408;24.626;2022-11-18T13:07:01;4.43;;;2.37;;
8312;SDS011;4194;43.408;24.626;2022-11-18T13:09:29;3.10;;;1.93;;
8312;SDS011;4194;43.408;24.626;2022-11-18T13:12:03;4.70;;;1.90;;
8312;SDS011;4194;43.408;24.626;2022-11-18T13:14:33;3.03;;;2.03;;
8312;SDS011;4194;43.408;24.626;2022-11-18T13:17:32;4.27;;;2.17;;
8312;SDS011;4194;43.408;24.626;2022-11-18T13:20:25;5.37;;;3.23;;
8312;SDS011;4194;43.408;24.626;2022-11-18T13:23:01;7.20;;;2.70;;
8312;SDS011;4194;43.408;24.626;2022-11-18T13:25:51;3.00;;;2.60;;
8312;SDS011;4194;43.408;24.626;2022-11-18T13:31:20;3.20;;;2.30;;
8312;SDS011;4194;43.408;24.626;2022-11-18T13:34:06;2.63;;;2.43;;
8312;SDS011;4194;43.408;24.626;2022-11-18T13:36:53;4.27;;;2.60;;
8312;SDS011;4194;43.408;24.626;2022-11-18T13:42:04;4.13;;;2.60;;
8312;SDS011;4194;43.408;24.626;2022-11-18T13:44:32;4.33;;;1.93;;
8312;SDS011;4194;43.408;24.626;2022-11-18T13:47:20;3.73;;;2.27;;
8312;SDS011;4194;43.408;24.626;2022-11-18T13:52:57;4.43;;;3.33;;
8312;SDS011;4194;43.408;24.626;2022-11-18T13:55:33;7.40;;;2.67;;
8312;SDS011;4194;43.408;24.626;2022-11-18T13:58:02;6.73;;;2.50;;
8312;SDS011;4194;43.408;24.626;2022-11-18T14:00:58;6.40;;;3.00;;
8312;SDS011;4194;43.408;24.626;2022-11-18T14:03:27;7.17;;;3.20;;
8312;SDS011;4194;43.408;24.626;2022-11-18T14:05:57;15.57;;;8.70;;
8312;SDS011;4194;43.408;24.626;2022-11-18T14:08:33;16.00;;;8.00;;
8312;SDS011;4194;43.408;24.626;2022-11-18T14:11:00;18.90;;;10.13;;
8312;SDS011;4194;43.408;24.626;2022-11-18T14:13:28;7.23;;;5.07;;
8312;SDS011;4194;43.408;24.626;2022-11-18T14:15:56;21.53;;;8.57;;
8312;SDS011;4194;43.408;24.626;2022-11-18T14:18:28;19.30;;;8.40;;
8312;SDS011;4194;43.408;24.626;2022-11-18T14:20:56;14.70;;;7.47;;
8312;SDS011;4194;43.408;24.626;2022-11-18T14:23:26;17.23;;;6.37;;
8312;SDS011;4194;43.408;24.626;2022-11-18T14:25:57;10.40;;;4.73;;
8312;SDS011;4194;43.408;24.626;2022-11-18T14:28:29;8.07;;;3.67;;
8312;SDS011;4194;43.408;24.626;2022-11-18T14:36:44;6.43;;;3.80;;
8312;SDS011;4194;43.408;24.626;2022-11-18T14:41:49;7.77;;;2.40;;
8312;SDS011;4194;43.408;24.626;2022-11-18T14:44:16;18.70;;;3.33;;
8312;SDS011;4194;43.408;24.626;2022-11-18T14:46:44;12.17;;;4.57;;
8312;SDS011;4194;43.408;24.626;2022-11-18T14:49:30;9.03;;;3.03;;
8312;SDS011;4194;43.408;24.626;2022-11-18T14:51:56;4.37;;;2.27;;
8312;SDS011;4194;43.408;24.626;2022-11-18T14:54:24;9.83;;;2.77;;
8312;SDS011;4194;43.408;24.626;2022-11-18T14:56:50;2.53;;;2.17;;
8312;SDS011;4194;43.408;24.626;2022-11-18T14:59:18;6.80;;;2.60;;
8312;SDS011;4194;43.408;24.626;2022-11-18T15:01:45;3.50;;;2.17;;
8312;SDS011;4194;43.408;24.626;2022-11-18T15:04:11;15.00;;;4.60;;
8312;SDS011;4194;43.408;24.626;2022-11-18T15:06:38;6.47;;;3.80;;
8312;SDS011;4194;43.408;24.626;2022-11-18T15:09:04;9.77;;;4.20;;
8312;SDS011;4194;43.408;24.626;2022-11-18T15:11:32;15.77;;;6.37;;
8312;SDS011;4194;43.408;24.626;2022-11-18T15:13:58;13.67;;;6.70;;
8312;SDS011;4194;43.408;24.626;2022-11-18T15:16:27;13.87;;;5.47;;
8312;SDS011;4194;43.408;24.626;2022-11-18T15:18:55;10.33;;;5.50;;
8312;SDS011;4194;43.408;24.626;2022-11-18T15:21:23;13.10;;;5.90;;
8312;SDS011;4194;43.408;24.626;2022-11-18T15:23:49;14.37;;;6.87;;
8312;SDS011;4194;43.408;24.626;2022-11-18T15:28:41;5.10;;;4.30;;
8312;SDS011;4194;43.408;24.626;2022-11-18T15:31:07;7.80;;;4.30;;
8312;SDS011;4194;43.408;24.626;2022-11-18T15:33:33;7.83;;;5.00;;
8312;SDS011;4194;43.408;24.626;2022-11-18T15:35:58;8.40;;;4.23;;
8312;SDS011;4194;43.408;24.626;2022-11-18T15:38:24;9.03;;;4.10;;
8312;SDS011;4194;43.408;24.626;2022-11-18T15:40:51;9.67;;;4.20;;
8312;SDS011;4194;43.408;24.626;2022-11-18T15:43:16;9.33;;;3.63;;
8312;SDS011;4194;43.408;24.626;2022-11-18T15:45:42;8.13;;;7.33;;
8312;SDS011;4194;43.408;24.626;2022-11-18T15:48:08;11.10;;;8.20;;
8312;SDS011;4194;43.408;24.626;2022-11-18T15:50:34;10.97;;;6.93;;
8312;SDS011;4194;43.408;24.626;2022-11-18T15:52:59;12.47;;;8.80;;
8312;SDS011;4194;43.408;24.626;2022-11-18T15:55:25;11.17;;;6.87;;
8312;SDS011;4194;43.408;24.626;2022-11-18T15:57:51;15.47;;;7.77;;
8312;SDS011;4194;43.408;24.626;2022-11-18T16:00:17;15.50;;;9.40;;
8312;SDS011;4194;43.408;24.626;2022-11-18T16:02:43;20.80;;;11.93;;
8312;SDS011;4194;43.408;24.626;2022-11-18T16:05:08;20.57;;;11.33;;
8312;SDS011;4194;43.408;24.626;2022-11-18T16:07:34;17.57;;;8.47;;
8312;SDS011;4194;43.408;24.626;2022-11-18T16:10:00;25.20;;;11.00;;
8312;SDS011;4194;43.408;24.626;2022-11-18T16:12:44;46.13;;;20.43;;
8312;SDS011;4194;43.408;24.626;2022-11-18T16:15:10;36.23;;;16.70;;
8312;SDS011;4194;43.408;24.626;2022-11-18T16:17:55;29.67;;;16.27;;
8312;SDS011;4194;43.408;24.626;2022-11-18T16:20:22;24.63;;;12.13;;
8312;SDS011;4194;43.408;24.626;2022-11-18T16:22:48;23.70;;;10.90;;
8312;SDS011;4194;43.408;24.626;2022-11-18T16:25:16;25.33;;;14.27;;
8312;SDS011;4194;43.408;24.626;2022-11-18T16:27:42;42.53;;;23.30;;
8312;SDS011;4194;43.408;24.626;2022-11-18T16:30:08;49.33;;;24.47;;
8312;SDS011;4194;43.408;24.626;2022-11-18T16:32:54;64.77;;;37.30;;
8312;SDS011;4194;43.408;24.626;2022-11-18T16:35:20;39.17;;;22.37;;
8312;SDS011;4194;43.408;24.626;2022-11-18T16:37:45;23.57;;;14.57;;
8312;SDS011;4194;43.408;24.626;2022-11-18T16:40:11;19.30;;;12.30;;
8312;SDS011;4194;43.408;24.626;2022-11-18T16:42:37;19.70;;;13.40;;
8312;SDS011;4194;43.408;24.626;2022-11-18T16:45:03;23.30;;;13.77;;
8312;SDS011;4194;43.408;24.626;2022-11-18T16:47:29;24.57;;;14.57;;
8312;SDS011;4194;43.408;24.626;2022-11-18T16:49:54;29.80;;;16.77;;
8312;SDS011;4194;43.408;24.626;2022-11-18T16:52:20;29.90;;;18.40;;
8312;SDS011;4194;43.408;24.626;2022-11-18T16:54:45;28.30;;;16.93;;
8312;SDS011;4194;43.408;24.626;2022-11-18T16:57:11;28.53;;;16.10;;
8312;SDS011;4194;43.408;24.626;2022-11-18T16:59:37;30.87;;;17.30;;
8312;SDS011;4194;43.408;24.626;2022-11-18T17:02:03;26.77;;;17.83;;
8312;SDS011;4194;43.408;24.626;2022-11-18T17:04:29;22.83;;;16.17;;
8312;SDS011;4194;43.408;24.626;2022-11-18T17:06:55;23.70;;;15.70;;
8312;SDS011;4194;43.408;24.626;2022-11-18T17:09:23;27.37;;;18.23;;
8312;SDS011;4194;43.408;24.626;2022-11-18T17:11:50;25.57;;;16.07;;
8312;SDS011;4194;43.408;24.626;2022-11-18T17:14:17;25.57;;;12.77;;
8312;SDS011;4194;43.408;24.626;2022-11-18T17:16:43;18.57;;;11.90;;
8312;SDS011;4194;43.408;24.626;2022-11-18T17:19:14;19.97;;;10.97;;
8312;SDS011;4194;43.408;24.626;2022-11-18T17:21:41;16.43;;;10.67;;
8312;SDS011;4194;43.408;24.626;2022-11-18T17:24:07;22.63;;;13.10;;
8312;SDS011;4194;43.408;24.626;2022-11-18T17:26:34;20.07;;;11.87;;
8312;SDS011;4194;43.408;24.626;2022-11-18T17:29:00;15.70;;;11.10;;
8312;SDS011;4194;43.408;24.626;2022-11-18T17:31:25;24.87;;;11.30;;
8312;SDS011;4194;43.408;24.626;2022-11-18T17:33:52;19.10;;;9.27;;
8312;SDS011;4194;43.408;24.626;2022-11-18T17:36:20;6.20;;;4.70;;